sensor_id;sensor_type;location;lat;lon;timestamp;P1;durP1;ratioP1;P2;durP2;ratioP2
21239;SDS011;10778;48.962;9.018;2022-10-23T00:00:10;7.57;;;4.20;;
21239;SDS011;10778;48.962;9.018;2022-10-23T00:02:36;10.68;;;4.30;;
21239;SDS011;10778;48.962;9.018;2022-10-23T00:05:02;9.73;;;4.10;;
21239;SDS011;10778;48.962;9.018;2022-10-23T00:07:29;10.13;;;4.15;;
21239;SDS011;10778;48.962;9.018;2022-10-23T00:09:54;16.00;;;4.18;;
21239;SDS011;10778;48.962;9.018;2022-10-23T00:12:20;8.40;;;3.70;;
21239;SDS011;10778;48.962;9.018;2022-10-23T00:14:47;4.85;;;3.20;;
21239;SDS011;10778;48.962;9.018;2022-10-23T00:17:12;6.03;;;3.83;;
21239;SDS011;10778;48.962;9.018;2022-10-23T00:19:38;7.07;;;3.67;;
21239;SDS011;10778;48.962;9.018;2022-10-23T00:22:04;7.00;;;3.63;;
21239;SDS011;10778;48.962;9.018;2022-10-23T00:24:32;6.53;;;3.67;;
21239;SDS011;10778;48.962;9.018;2022-10-23T00:26:58;7.40;;;3.63;;
21239;SDS011;10778;48.962;9.018;2022-10-23T00:29:24;7.82;;;4.18;;
21239;SDS011;10778;48.962;9.018;2022-10-23T00:31:53;12.10;;;4.03;;
21239;SDS011;10778;48.962;9.018;2022-10-23T00:34:19;6.93;;;3.65;;
21239;SDS011;10778;48.962;9.018;2022-10-23T00:36:45;7.05;;;4.35;;
21239;SDS011;10778;48.962;9.018;2022-10-23T00:39:11;8.52;;;4.63;;
21239;SDS011;10778;48.962;9.018;2022-10-23T00:41:37;9.18;;;4.70;;
21239;SDS011;10778;48.962;9.018;2022-10-23T00:44:05;8.82;;;4.57;;
21239;SDS011;10778;48.962;9.018;2022-10-23T00:46:32;9.07;;;4.32;;
21239;SDS011;10778;48.962;9.018;2022-10-23T00:48:59;9.38;;;4.20;;
21239;SDS011;10778;48.962;9.018;2022-10-23T00:51:27;9.63;;;3.88;;
21239;SDS011;10778;48.962;9.018;2022-10-23T00:53:57;11.07;;;3.97;;
21239;SDS011;10778;48.962;9.018;2022-10-23T00:56:27;6.88;;;4.25;;
21239;SDS011;10778;48.962;9.018;2022-10-23T00:58:53;5.97;;;3.50;;
21239;SDS011;10778;48.962;9.018;2022-10-23T01:01:20;8.13;;;3.65;;
21239;SDS011;10778;48.962;9.018;2022-10-23T01:03:47;7.20;;;3.65;;
21239;SDS011;10778;48.962;9.018;2022-10-23T01:14:25;10.63;;;3.67;;
21239;SDS011;10778;48.962;9.018;2022-10-23T01:17:11;5.50;;;3.35;;
21239;SDS011;10778;48.962;9.018;2022-10-23T01:23:10;7.32;;;3.42;;
21239;SDS011;10778;48.962;9.018;2022-10-23T01:28:24;9.70;;;3.70;;
21239;SDS011;10778;48.962;9.018;2022-10-23T01:30:56;5.25;;;3.42;;
21239;SDS011;10778;48.962;9.018;2022-10-23T01:33:52;5.80;;;3.58;;
21239;SDS011;10778;48.962;9.018;2022-10-23T01:36:26;7.18;;;3.97;;
21239;SDS011;10778;48.962;9.018;2022-10-23T01:38:59;12.10;;;3.80;;
21239;SDS011;10778;48.962;9.018;2022-10-23T01:41:35;6.20;;;3.58;;
21239;SDS011;10778;48.962;9.018;2022-10-23T01:46:57;12.98;;;3.80;;
21239;SDS011;10778;48.962;9.018;2022-10-23T01:49:27;10.02;;;3.50;;
21239;SDS011;10778;48.962;9.018;2022-10-23T01:51:56;8.10;;;3.88;;
21239;SDS011;10778;48.962;9.018;2022-10-23T01:54:28;9.13;;;3.55;;
21239;SDS011;10778;48.962;9.018;2022-10-23T01:56:58;8.05;;;3.80;;
21239;SDS011;10778;48.962;9.018;2022-10-23T01:59:29;8.07;;;3.45;;
21239;SDS011;10778;48.962;9.018;2022-10-23T02:02:00;7.55;;;3.58;;
21239;SDS011;10778;48.962;9.018;2022-10-23T02:04:39;9.35;;;3.33;;
21239;SDS011;10778;48.962;9.018;2022-10-23T02:07:07;5.80;;;3.35;;
21239;SDS011;10778;48.962;9.018;2022-10-23T02:09:33;6.50;;;3.20;;
21239;SDS011;10778;48.962;9.018;2022-10-23T02:12:06;6.85;;;3.22;;
21239;SDS011;10778;48.962;9.018;2022-10-23T02:14:54;11.18;;;3.95;;
21239;SDS011;10778;48.962;9.018;2022-10-23T02:17:27;7.50;;;3.22;;
21239;SDS011;10778;48.962;9.018;2022-10-23T02:20:26;8.95;;;3.60;;
21239;SDS011;10778;48.962;9.018;2022-10-23T02:25:36;5.45;;;3.53;;
21239;SDS011;10778;48.962;9.018;2022-10-23T02:28:11;7.10;;;3.47;;
21239;SDS011;10778;48.962;9.018;2022-10-23T02:30:45;6.88;;;3.22;;
21239;SDS011;10778;48.962;9.018;2022-10-23T02:33:14;9.75;;;3.67;;
21239;SDS011;10778;48.962;9.018;2022-10-23T02:35:42;7.18;;;3.40;;
21239;SDS011;10778;48.962;9.018;2022-10-23T02:43:46;7.57;;;3.60;;
21239;SDS011;10778;48.962;9.018;2022-10-23T02:46:33;10.85;;;3.67;;
21239;SDS011;10778;48.962;9.018;2022-10-23T02:49:09;12.90;;;3.70;;
21239;SDS011;10778;48.962;9.018;2022-10-23T02:51:45;7.45;;;3.72;;
21239;SDS011;10778;48.962;9.018;2022-10-23T03:00:18;10.70;;;3.85;;
21239;SDS011;10778;48.962;9.018;2022-10-23T03:05:26;8.52;;;3.92;;
21239;SDS011;10778;48.962;9.018;2022-10-23T03:07:56;11.32;;;4.60;;
21239;SDS011;10778;48.962;9.018;2022-10-23T03:10:22;6.97;;;4.32;;
21239;SDS011;10778;48.962;9.018;2022-10-23T03:12:49;11.10;;;4.13;;
21239;SDS011;10778;48.962;9.018;2022-10-23T03:15:15;5.70;;;3.65;;
21239;SDS011;10778;48.962;9.018;2022-10-23T03:17:42;10.13;;;3.42;;
21239;SDS011;10778;48.962;9.018;2022-10-23T03:20:08;6.35;;;3.17;;
21239;SDS011;10778;48.962;9.018;2022-10-23T03:22:35;7.72;;;3.40;;
21239;SDS011;10778;48.962;9.018;2022-10-23T03:25:01;8.60;;;3.65;;
21239;SDS011;10778;48.962;9.018;2022-10-23T03:27:30;6.45;;;3.25;;
21239;SDS011;10778;48.962;9.018;2022-10-23T03:29:59;9.18;;;3.50;;
21239;SDS011;10778;48.962;9.018;2022-10-23T03:32:29;5.55;;;3.35;;
21239;SDS011;10778;48.962;9.018;2022-10-23T03:34:55;6.18;;;3.35;;
21239;SDS011;10778;48.962;9.018;2022-10-23T03:37:21;6.57;;;3.40;;
21239;SDS011;10778;48.962;9.018;2022-10-23T03:39:49;7.43;;;3.92;;
21239;SDS011;10778;48.962;9.018;2022-10-23T03:42:15;7.38;;;3.38;;
21239;SDS011;10778;48.962;9.018;2022-10-23T03:44:41;5.93;;;3.40;;
21239;SDS011;10778;48.962;9.018;2022-10-23T03:47:07;4.78;;;3.08;;
21239;SDS011;10778;48.962;9.018;2022-10-23T03:49:37;4.70;;;3.15;;
21239;SDS011;10778;48.962;9.018;2022-10-23T03:52:05;6.10;;;2.80;;
21239;SDS011;10778;48.962;9.018;2022-10-23T03:54:32;6.38;;;3.30;;
21239;SDS011;10778;48.962;9.018;2022-10-23T03:56:59;4.50;;;2.97;;
21239;SDS011;10778;48.962;9.018;2022-10-23T03:59:26;6.32;;;3.38;;
21239;SDS011;10778;48.962;9.018;2022-10-23T04:01:52;11.18;;;3.60;;
21239;SDS011;10778;48.962;9.018;2022-10-23T04:04:19;5.95;;;3.40;;
21239;SDS011;10778;48.962;9.018;2022-10-23T04:06:45;5.13;;;3.50;;
21239;SDS011;10778;48.962;9.018;2022-10-23T04:09:11;7.75;;;3.60;;
21239;SDS011;10778;48.962;9.018;2022-10-23T04:11:37;6.75;;;3.33;;
21239;SDS011;10778;48.962;9.018;2022-10-23T04:14:03;10.05;;;3.80;;
21239;SDS011;10778;48.962;9.018;2022-10-23T04:16:29;4.88;;;3.35;;
21239;SDS011;10778;48.962;9.018;2022-10-23T04:18:55;6.35;;;3.38;;
21239;SDS011;10778;48.962;9.018;2022-10-23T04:21:21;6.13;;;3.60;;
21239;SDS011;10778;48.962;9.018;2022-10-23T04:23:48;5.97;;;3.40;;
21239;SDS011;10778;48.962;9.018;2022-10-23T04:26:16;5.45;;;3.30;;
21239;SDS011;10778;48.962;9.018;2022-10-23T04:28:42;7.45;;;3.45;;
21239;SDS011;10778;48.962;9.018;2022-10-23T04:31:09;6.03;;;3.45;;
21239;SDS011;10778;48.962;9.018;2022-10-23T04:33:39;6.38;;;3.33;;
21239;SDS011;10778;48.962;9.018;2022-10-23T04:36:05;6.68;;;3.53;;
21239;SDS011;10778;48.962;9.018;2022-10-23T04:38:32;6.20;;;3.60;;
21239;SDS011;10778;48.962;9.018;2022-10-23T04:40:59;7.63;;;3.42;;
21239;SDS011;10778;48.962;9.018;2022-10-23T04:43:26;5.25;;;3.22;;
21239;SDS011;10778;48.962;9.018;2022-10-23T04:45:52;8.48;;;3.67;;
21239;SDS011;10778;48.962;9.018;2022-10-23T04:48:19;4.90;;;3.50;;
21239;SDS011;10778;48.962;9.018;2022-10-23T04:51:17;7.18;;;3.63;;
21239;SDS011;10778;48.962;9.018;2022-10-23T04:54:12;5.72;;;3.83;;
21239;SDS011;10778;48.962;9.018;2022-10-23T04:56:59;6.53;;;3.80;;
21239;SDS011;10778;48.962;9.018;2022-10-23T04:59:31;8.90;;;4.45;;
21239;SDS011;10778;48.962;9.018;2022-10-23T05:01:59;3.90;;;3.30;;
21239;SDS011;10778;48.962;9.018;2022-10-23T05:04:26;5.78;;;3.58;;
21239;SDS011;10778;48.962;9.018;2022-10-23T05:07:10;4.80;;;3.40;;
21239;SDS011;10778;48.962;9.018;2022-10-23T05:09:47;7.43;;;3.78;;
21239;SDS011;10778;48.962;9.018;2022-10-23T05:12:24;7.00;;;3.60;;
21239;SDS011;10778;48.962;9.018;2022-10-23T05:14:51;8.25;;;3.70;;
21239;SDS011;10778;48.962;9.018;2022-10-23T05:17:18;8.77;;;3.67;;
21239;SDS011;10778;48.962;9.018;2022-10-23T05:19:49;8.70;;;3.60;;
21239;SDS011;10778;48.962;9.018;2022-10-23T05:22:20;6.10;;;3.67;;
21239;SDS011;10778;48.962;9.018;2022-10-23T05:24:51;6.93;;;3.50;;
21239;SDS011;10778;48.962;9.018;2022-10-23T05:27:22;6.50;;;3.75;;
21239;SDS011;10778;48.962;9.018;2022-10-23T05:29:50;4.78;;;3.50;;
21239;SDS011;10778;48.962;9.018;2022-10-23T05:32:19;7.50;;;3.83;;
21239;SDS011;10778;48.962;9.018;2022-10-23T05:34:46;6.30;;;4.13;;
21239;SDS011;10778;48.962;9.018;2022-10-23T05:37:13;8.57;;;3.50;;
21239;SDS011;10778;48.962;9.018;2022-10-23T05:39:41;7.68;;;4.00;;
21239;SDS011;10778;48.962;9.018;2022-10-23T05:42:13;8.27;;;4.30;;
21239;SDS011;10778;48.962;9.018;2022-10-23T05:44:40;5.43;;;3.97;;
21239;SDS011;10778;48.962;9.018;2022-10-23T05:47:24;6.68;;;4.10;;
21239;SDS011;10778;48.962;9.018;2022-10-23T05:50:14;6.15;;;3.53;;
21239;SDS011;10778;48.962;9.018;2022-10-23T05:52:49;7.45;;;4.00;;
21239;SDS011;10778;48.962;9.018;2022-10-23T05:55:42;6.72;;;3.78;;
21239;SDS011;10778;48.962;9.018;2022-10-23T05:58:34;8.60;;;4.35;;
21239;SDS011;10778;48.962;9.018;2022-10-23T06:01:11;6.68;;;4.00;;
21239;SDS011;10778;48.962;9.018;2022-10-23T06:03:57;8.95;;;4.15;;
21239;SDS011;10778;48.962;9.018;2022-10-23T06:06:33;6.85;;;3.75;;
21239;SDS011;10778;48.962;9.018;2022-10-23T06:09:02;7.55;;;4.25;;
21239;SDS011;10778;48.962;9.018;2022-10-23T06:11:31;11.30;;;4.80;;
21239;SDS011;10778;48.962;9.018;2022-10-23T06:14:04;7.78;;;4.20;;
21239;SDS011;10778;48.962;9.018;2022-10-23T06:16:31;8.07;;;4.10;;
21239;SDS011;10778;48.962;9.018;2022-10-23T06:18:58;6.95;;;4.63;;
21239;SDS011;10778;48.962;9.018;2022-10-23T06:21:25;6.35;;;4.15;;
21239;SDS011;10778;48.962;9.018;2022-10-23T06:23:51;9.10;;;4.07;;
21239;SDS011;10778;48.962;9.018;2022-10-23T06:26:29;12.00;;;4.30;;
21239;SDS011;10778;48.962;9.018;2022-10-23T06:29:18;6.72;;;4.15;;
21239;SDS011;10778;48.962;9.018;2022-10-23T06:31:44;6.75;;;4.50;;
21239;SDS011;10778;48.962;9.018;2022-10-23T06:34:11;8.23;;;4.57;;
21239;SDS011;10778;48.962;9.018;2022-10-23T06:36:38;11.20;;;4.70;;
21239;SDS011;10778;48.962;9.018;2022-10-23T06:39:23;8.30;;;5.25;;
21239;SDS011;10778;48.962;9.018;2022-10-23T06:41:58;9.90;;;4.93;;
21239;SDS011;10778;48.962;9.018;2022-10-23T06:44:43;7.80;;;5.20;;
21239;SDS011;10778;48.962;9.018;2022-10-23T06:47:10;7.63;;;5.03;;
21239;SDS011;10778;48.962;9.018;2022-10-23T06:50:05;8.48;;;4.72;;
21239;SDS011;10778;48.962;9.018;2022-10-23T06:52:31;10.93;;;4.90;;
21239;SDS011;10778;48.962;9.018;2022-10-23T06:54:57;8.68;;;4.30;;
21239;SDS011;10778;48.962;9.018;2022-10-23T06:57:29;10.32;;;4.60;;
21239;SDS011;10778;48.962;9.018;2022-10-23T06:59:55;9.05;;;5.40;;
21239;SDS011;10778;48.962;9.018;2022-10-23T07:02:22;9.82;;;5.00;;
21239;SDS011;10778;48.962;9.018;2022-10-23T07:04:48;8.82;;;4.85;;
21239;SDS011;10778;48.962;9.018;2022-10-23T07:07:17;9.15;;;4.97;;
21239;SDS011;10778;48.962;9.018;2022-10-23T07:09:46;7.60;;;4.28;;
21239;SDS011;10778;48.962;9.018;2022-10-23T07:12:22;6.28;;;4.78;;
21239;SDS011;10778;48.962;9.018;2022-10-23T07:14:56;8.18;;;5.53;;
21239;SDS011;10778;48.962;9.018;2022-10-23T07:17:23;9.27;;;4.85;;
21239;SDS011;10778;48.962;9.018;2022-10-23T07:19:49;5.82;;;4.13;;
21239;SDS011;10778;48.962;9.018;2022-10-23T07:22:15;7.80;;;4.45;;
21239;SDS011;10778;48.962;9.018;2022-10-23T07:24:44;9.73;;;5.10;;
21239;SDS011;10778;48.962;9.018;2022-10-23T07:27:19;6.97;;;4.65;;
21239;SDS011;10778;48.962;9.018;2022-10-23T07:29:52;6.15;;;4.00;;
21239;SDS011;10778;48.962;9.018;2022-10-23T07:32:18;7.50;;;4.13;;
21239;SDS011;10778;48.962;9.018;2022-10-23T07:35:02;6.57;;;4.22;;
21239;SDS011;10778;48.962;9.018;2022-10-23T07:37:32;6.10;;;3.90;;
21239;SDS011;10778;48.962;9.018;2022-10-23T07:40:01;7.72;;;3.80;;
21239;SDS011;10778;48.962;9.018;2022-10-23T07:42:28;6.20;;;3.13;;
21239;SDS011;10778;48.962;9.018;2022-10-23T07:44:54;4.10;;;2.83;;
21239;SDS011;10778;48.962;9.018;2022-10-23T07:47:21;5.63;;;2.92;;
21239;SDS011;10778;48.962;9.018;2022-10-23T07:49:50;5.55;;;2.75;;
21239;SDS011;10778;48.962;9.018;2022-10-23T07:52:19;5.57;;;3.08;;
21239;SDS011;10778;48.962;9.018;2022-10-23T07:55:17;5.85;;;3.33;;
21239;SDS011;10778;48.962;9.018;2022-10-23T07:57:49;5.88;;;3.30;;
21239;SDS011;10778;48.962;9.018;2022-10-23T08:00:31;5.93;;;3.22;;
21239;SDS011;10778;48.962;9.018;2022-10-23T08:03:08;6.18;;;3.17;;
21239;SDS011;10778;48.962;9.018;2022-10-23T08:05:35;6.30;;;3.20;;
21239;SDS011;10778;48.962;9.018;2022-10-23T08:08:03;4.20;;;3.08;;
21239;SDS011;10778;48.962;9.018;2022-10-23T08:10:29;6.05;;;3.10;;
21239;SDS011;10778;48.962;9.018;2022-10-23T08:12:57;6.78;;;3.38;;
21239;SDS011;10778;48.962;9.018;2022-10-23T08:15:42;5.32;;;3.03;;
21239;SDS011;10778;48.962;9.018;2022-10-23T08:18:25;8.32;;;3.20;;
21239;SDS011;10778;48.962;9.018;2022-10-23T08:20:52;4.93;;;3.08;;
21239;SDS011;10778;48.962;9.018;2022-10-23T08:23:18;6.35;;;2.78;;
21239;SDS011;10778;48.962;9.018;2022-10-23T08:25:45;5.47;;;3.00;;
21239;SDS011;10778;48.962;9.018;2022-10-23T08:28:12;6.55;;;3.38;;
21239;SDS011;10778;48.962;9.018;2022-10-23T08:30:49;7.70;;;3.08;;
21239;SDS011;10778;48.962;9.018;2022-10-23T08:33:16;4.88;;;3.20;;
21239;SDS011;10778;48.962;9.018;2022-10-23T08:35:44;8.88;;;2.90;;
21239;SDS011;10778;48.962;9.018;2022-10-23T08:38:11;5.07;;;2.95;;
21239;SDS011;10778;48.962;9.018;2022-10-23T08:40:43;4.85;;;2.90;;
21239;SDS011;10778;48.962;9.018;2022-10-23T08:46:25;4.88;;;2.33;;
21239;SDS011;10778;48.962;9.018;2022-10-23T08:49:19;6.68;;;2.80;;
21239;SDS011;10778;48.962;9.018;2022-10-23T08:51:58;3.63;;;2.50;;
21239;SDS011;10778;48.962;9.018;2022-10-23T08:54:32;4.32;;;2.42;;
21239;SDS011;10778;48.962;9.018;2022-10-23T08:57:12;5.68;;;2.20;;
21239;SDS011;10778;48.962;9.018;2022-10-23T08:59:45;5.93;;;2.22;;
21239;SDS011;10778;48.962;9.018;2022-10-23T09:05:03;5.80;;;2.10;;
21239;SDS011;10778;48.962;9.018;2022-10-23T09:07:39;6.18;;;2.42;;
21239;SDS011;10778;48.962;9.018;2022-10-23T09:10:59;3.67;;;1.95;;
21239;SDS011;10778;48.962;9.018;2022-10-23T09:13:33;5.50;;;2.10;;
21239;SDS011;10778;48.962;9.018;2022-10-23T09:16:14;3.58;;;1.83;;
21239;SDS011;10778;48.962;9.018;2022-10-23T09:18:51;7.22;;;2.10;;
21239;SDS011;10778;48.962;9.018;2022-10-23T09:21:24;7.70;;;1.98;;
21239;SDS011;10778;48.962;9.018;2022-10-23T09:23:51;4.85;;;2.05;;
21239;SDS011;10778;48.962;9.018;2022-10-23T09:26:17;7.28;;;1.90;;
21239;SDS011;10778;48.962;9.018;2022-10-23T09:28:47;5.40;;;1.98;;
21239;SDS011;10778;48.962;9.018;2022-10-23T09:31:21;3.75;;;2.00;;
21239;SDS011;10778;48.962;9.018;2022-10-23T09:33:55;6.00;;;2.10;;
21239;SDS011;10778;48.962;9.018;2022-10-23T09:36:26;4.53;;;2.10;;
21239;SDS011;10778;48.962;9.018;2022-10-23T09:38:55;4.00;;;2.00;;
21239;SDS011;10778;48.962;9.018;2022-10-23T09:46:36;2.95;;;1.58;;
21239;SDS011;10778;48.962;9.018;2022-10-23T09:52:04;4.05;;;1.90;;
21239;SDS011;10778;48.962;9.018;2022-10-23T09:54:38;4.63;;;1.85;;
21239;SDS011;10778;48.962;9.018;2022-10-23T10:02:42;3.90;;;1.50;;
21239;SDS011;10778;48.962;9.018;2022-10-23T10:05:40;3.78;;;1.70;;
21239;SDS011;10778;48.962;9.018;2022-10-23T10:11:01;2.58;;;1.50;;
21239;SDS011;10778;48.962;9.018;2022-10-23T10:14:17;3.20;;;1.48;;
21239;SDS011;10778;48.962;9.018;2022-10-23T10:22:39;2.92;;;1.42;;
21239;SDS011;10778;48.962;9.018;2022-10-23T10:28:08;1.95;;;1.20;;
21239;SDS011;10778;48.962;9.018;2022-10-23T10:50:27;1.88;;;1.38;;
21239;SDS011;10778;48.962;9.018;2022-10-23T10:55:56;2.47;;;1.25;;
21239;SDS011;10778;48.962;9.018;2022-10-23T11:00:58;2.35;;;1.23;;
21239;SDS011;10778;48.962;9.018;2022-10-23T11:03:38;3.50;;;1.10;;
21239;SDS011;10778;48.962;9.018;2022-10-23T11:06:17;2.75;;;1.10;;
21239;SDS011;10778;48.962;9.018;2022-10-23T11:08:46;3.15;;;1.10;;
21239;SDS011;10778;48.962;9.018;2022-10-23T11:11:14;2.45;;;0.90;;
21239;SDS011;10778;48.962;9.018;2022-10-23T11:13:45;3.40;;;0.90;;
21239;SDS011;10778;48.962;9.018;2022-10-23T11:16:20;2.30;;;0.93;;
21239;SDS011;10778;48.962;9.018;2022-10-23T11:19:02;4.68;;;0.90;;
21239;SDS011;10778;48.962;9.018;2022-10-23T11:32:28;3.35;;;1.00;;
21239;SDS011;10778;48.962;9.018;2022-10-23T11:40:52;3.78;;;1.10;;
21239;SDS011;10778;48.962;9.018;2022-10-23T11:43:28;1.17;;;1.00;;
21239;SDS011;10778;48.962;9.018;2022-10-23T11:46:13;2.60;;;1.20;;
21239;SDS011;10778;48.962;9.018;2022-10-23T11:48:57;4.75;;;1.25;;
21239;SDS011;10778;48.962;9.018;2022-10-23T11:56:51;2.55;;;1.20;;
21239;SDS011;10778;48.962;9.018;2022-10-23T11:59:59;2.65;;;1.33;;
21239;SDS011;10778;48.962;9.018;2022-10-23T12:05:05;4.38;;;1.55;;
21239;SDS011;10778;48.962;9.018;2022-10-23T12:07:34;3.33;;;1.40;;
21239;SDS011;10778;48.962;9.018;2022-10-23T12:10:18;4.45;;;1.88;;
21239;SDS011;10778;48.962;9.018;2022-10-23T12:12:55;2.22;;;1.48;;
21239;SDS011;10778;48.962;9.018;2022-10-23T12:15:30;3.80;;;1.60;;
21239;SDS011;10778;48.962;9.018;2022-10-23T12:18:07;4.32;;;1.70;;
21239;SDS011;10778;48.962;9.018;2022-10-23T12:31:26;4.10;;;1.58;;
21239;SDS011;10778;48.962;9.018;2022-10-23T12:39:29;3.15;;;1.40;;
21239;SDS011;10778;48.962;9.018;2022-10-23T12:41:55;3.13;;;1.40;;
21239;SDS011;10778;48.962;9.018;2022-10-23T12:44:22;3.60;;;1.48;;
21239;SDS011;10778;48.962;9.018;2022-10-23T12:46:52;3.08;;;1.23;;
21239;SDS011;10778;48.962;9.018;2022-10-23T12:49:22;4.05;;;1.10;;
21239;SDS011;10778;48.962;9.018;2022-10-23T12:51:58;1.42;;;1.15;;
21239;SDS011;10778;48.962;9.018;2022-10-23T12:54:38;2.53;;;1.10;;
21239;SDS011;10778;48.962;9.018;2022-10-23T12:59:47;2.90;;;1.00;;
21239;SDS011;10778;48.962;9.018;2022-10-23T13:04:48;2.42;;;0.90;;
21239;SDS011;10778;48.962;9.018;2022-10-23T13:07:17;1.30;;;0.75;;
21239;SDS011;10778;48.962;9.018;2022-10-23T13:09:48;2.67;;;0.80;;
21239;SDS011;10778;48.962;9.018;2022-10-23T13:12:21;1.48;;;0.70;;
21239;SDS011;10778;48.962;9.018;2022-10-23T13:15:11;1.58;;;0.60;;
21239;SDS011;10778;48.962;9.018;2022-10-23T13:17:44;1.50;;;0.70;;
21239;SDS011;10778;48.962;9.018;2022-10-23T13:23:15;2.42;;;0.80;;
21239;SDS011;10778;48.962;9.018;2022-10-23T13:25:57;3.83;;;0.70;;
21239;SDS011;10778;48.962;9.018;2022-10-23T13:28:30;2.88;;;0.70;;
21239;SDS011;10778;48.962;9.018;2022-10-23T13:31:02;1.98;;;0.80;;
21239;SDS011;10778;48.962;9.018;2022-10-23T13:33:50;1.08;;;0.57;;
21239;SDS011;10778;48.962;9.018;2022-10-23T13:36:29;3.35;;;0.70;;
21239;SDS011;10778;48.962;9.018;2022-10-23T13:41:37;2.45;;;0.80;;
21239;SDS011;10778;48.962;9.018;2022-10-23T13:44:05;2.25;;;0.77;;
21239;SDS011;10778;48.962;9.018;2022-10-23T13:46:32;1.63;;;0.70;;
21239;SDS011;10778;48.962;9.018;2022-10-23T13:48:58;1.30;;;0.73;;
21239;SDS011;10778;48.962;9.018;2022-10-23T13:51:24;4.57;;;0.90;;
21239;SDS011;10778;48.962;9.018;2022-10-23T13:53:53;2.35;;;0.98;;
21239;SDS011;10778;48.962;9.018;2022-10-23T13:56:20;3.17;;;0.75;;
21239;SDS011;10778;48.962;9.018;2022-10-23T13:58:48;1.98;;;0.90;;
21239;SDS011;10778;48.962;9.018;2022-10-23T14:01:22;5.68;;;1.10;;
21239;SDS011;10778;48.962;9.018;2022-10-23T14:03:48;3.53;;;1.20;;
21239;SDS011;10778;48.962;9.018;2022-10-23T14:06:16;4.50;;;1.17;;
21239;SDS011;10778;48.962;9.018;2022-10-23T14:08:42;4.22;;;1.30;;
21239;SDS011;10778;48.962;9.018;2022-10-23T14:11:12;6.60;;;1.40;;
21239;SDS011;10778;48.962;9.018;2022-10-23T14:13:39;3.50;;;1.35;;
21239;SDS011;10778;48.962;9.018;2022-10-23T14:16:06;5.43;;;1.35;;
21239;SDS011;10778;48.962;9.018;2022-10-23T14:18:34;4.90;;;1.70;;
21239;SDS011;10778;48.962;9.018;2022-10-23T14:21:00;5.38;;;1.50;;
21239;SDS011;10778;48.962;9.018;2022-10-23T14:23:27;4.20;;;1.55;;
21239;SDS011;10778;48.962;9.018;2022-10-23T14:25:53;5.88;;;1.80;;
21239;SDS011;10778;48.962;9.018;2022-10-23T14:28:19;5.68;;;1.92;;
21239;SDS011;10778;48.962;9.018;2022-10-23T14:30:45;5.82;;;1.95;;
21239;SDS011;10778;48.962;9.018;2022-10-23T14:33:11;5.28;;;1.80;;
21239;SDS011;10778;48.962;9.018;2022-10-23T14:35:40;2.45;;;1.63;;
21239;SDS011;10778;48.962;9.018;2022-10-23T14:38:08;6.05;;;1.60;;
21239;SDS011;10778;48.962;9.018;2022-10-23T14:40:37;4.75;;;1.75;;
21239;SDS011;10778;48.962;9.018;2022-10-23T14:43:03;6.68;;;1.77;;
21239;SDS011;10778;48.962;9.018;2022-10-23T14:45:30;2.75;;;1.50;;
21239;SDS011;10778;48.962;9.018;2022-10-23T14:47:56;3.15;;;1.52;;
21239;SDS011;10778;48.962;9.018;2022-10-23T14:50:25;3.83;;;1.65;;
21239;SDS011;10778;48.962;9.018;2022-10-23T14:52:51;3.13;;;1.52;;
21239;SDS011;10778;48.962;9.018;2022-10-23T14:55:17;7.75;;;1.70;;
21239;SDS011;10778;48.962;9.018;2022-10-23T14:57:43;5.18;;;1.63;;
21239;SDS011;10778;48.962;9.018;2022-10-23T15:00:10;4.13;;;1.58;;
21239;SDS011;10778;48.962;9.018;2022-10-23T15:02:36;5.03;;;1.70;;
21239;SDS011;10778;48.962;9.018;2022-10-23T15:05:02;3.00;;;1.60;;
21239;SDS011;10778;48.962;9.018;2022-10-23T15:07:30;2.90;;;1.30;;
21239;SDS011;10778;48.962;9.018;2022-10-23T15:09:56;4.18;;;1.58;;
21239;SDS011;10778;48.962;9.018;2022-10-23T15:12:22;4.35;;;1.70;;
21239;SDS011;10778;48.962;9.018;2022-10-23T15:14:49;6.25;;;1.63;;
21239;SDS011;10778;48.962;9.018;2022-10-23T15:17:15;5.10;;;1.90;;
21239;SDS011;10778;48.962;9.018;2022-10-23T15:19:41;4.13;;;1.60;;
21239;SDS011;10778;48.962;9.018;2022-10-23T15:22:07;2.85;;;1.63;;
21239;SDS011;10778;48.962;9.018;2022-10-23T15:24:33;5.60;;;1.80;;
21239;SDS011;10778;48.962;9.018;2022-10-23T15:26:59;3.35;;;1.50;;
21239;SDS011;10778;48.962;9.018;2022-10-23T15:29:25;3.30;;;1.52;;
21239;SDS011;10778;48.962;9.018;2022-10-23T15:31:51;5.25;;;1.73;;
21239;SDS011;10778;48.962;9.018;2022-10-23T15:34:21;3.03;;;1.50;;
21239;SDS011;10778;48.962;9.018;2022-10-23T15:36:49;6.40;;;2.00;;
21239;SDS011;10778;48.962;9.018;2022-10-23T15:39:17;8.65;;;2.20;;
21239;SDS011;10778;48.962;9.018;2022-10-23T15:41:45;7.55;;;2.10;;
21239;SDS011;10778;48.962;9.018;2022-10-23T15:44:13;3.33;;;1.60;;
21239;SDS011;10778;48.962;9.018;2022-10-23T15:46:43;7.65;;;1.85;;
21239;SDS011;10778;48.962;9.018;2022-10-23T15:49:09;7.60;;;2.22;;
21239;SDS011;10778;48.962;9.018;2022-10-23T15:51:35;4.65;;;2.28;;
21239;SDS011;10778;48.962;9.018;2022-10-23T15:54:03;6.15;;;1.80;;
21239;SDS011;10778;48.962;9.018;2022-10-23T15:56:34;4.22;;;1.98;;
21239;SDS011;10778;48.962;9.018;2022-10-23T15:59:00;7.00;;;1.95;;
21239;SDS011;10778;48.962;9.018;2022-10-23T16:01:27;5.65;;;1.77;;
21239;SDS011;10778;48.962;9.018;2022-10-23T16:03:53;6.07;;;1.70;;
21239;SDS011;10778;48.962;9.018;2022-10-23T16:06:19;4.07;;;1.98;;
21239;SDS011;10778;48.962;9.018;2022-10-23T16:08:46;4.93;;;2.22;;
21239;SDS011;10778;48.962;9.018;2022-10-23T16:11:14;4.70;;;2.40;;
21239;SDS011;10778;48.962;9.018;2022-10-23T16:13:45;3.65;;;2.13;;
21239;SDS011;10778;48.962;9.018;2022-10-23T16:16:12;8.00;;;2.47;;
21239;SDS011;10778;48.962;9.018;2022-10-23T16:18:39;5.60;;;2.47;;
21239;SDS011;10778;48.962;9.018;2022-10-23T16:21:06;6.55;;;3.00;;
21239;SDS011;10778;48.962;9.018;2022-10-23T16:23:32;5.60;;;3.45;;
21239;SDS011;10778;48.962;9.018;2022-10-23T16:26:03;4.40;;;3.30;;
21239;SDS011;10778;48.962;9.018;2022-10-23T16:28:30;6.40;;;3.53;;
21239;SDS011;10778;48.962;9.018;2022-10-23T16:30:56;8.27;;;5.18;;
21239;SDS011;10778;48.962;9.018;2022-10-23T16:33:23;12.80;;;5.65;;
21239;SDS011;10778;48.962;9.018;2022-10-23T16:35:49;5.78;;;4.05;;
21239;SDS011;10778;48.962;9.018;2022-10-23T16:38:20;5.03;;;3.30;;
21239;SDS011;10778;48.962;9.018;2022-10-23T16:40:50;6.15;;;2.65;;
21239;SDS011;10778;48.962;9.018;2022-10-23T16:43:37;10.13;;;2.63;;
21239;SDS011;10778;48.962;9.018;2022-10-23T16:46:22;7.90;;;2.40;;
21239;SDS011;10778;48.962;9.018;2022-10-23T16:48:49;6.28;;;2.20;;
21239;SDS011;10778;48.962;9.018;2022-10-23T16:51:17;11.77;;;2.33;;
21239;SDS011;10778;48.962;9.018;2022-10-23T16:53:48;33.15;;;21.52;;
21239;SDS011;10778;48.962;9.018;2022-10-23T16:56:15;19.42;;;10.93;;
21239;SDS011;10778;48.962;9.018;2022-10-23T16:58:43;9.82;;;5.78;;
21239;SDS011;10778;48.962;9.018;2022-10-23T17:01:14;11.02;;;3.13;;
21239;SDS011;10778;48.962;9.018;2022-10-23T17:03:49;11.57;;;2.80;;
21239;SDS011;10778;48.962;9.018;2022-10-23T17:06:17;12.90;;;2.30;;
21239;SDS011;10778;48.962;9.018;2022-10-23T17:08:46;8.27;;;1.95;;
21239;SDS011;10778;48.962;9.018;2022-10-23T17:11:14;4.40;;;2.17;;
21239;SDS011;10778;48.962;9.018;2022-10-23T17:13:43;5.55;;;2.10;;
21239;SDS011;10778;48.962;9.018;2022-10-23T17:18:39;7.15;;;2.45;;
21239;SDS011;10778;48.962;9.018;2022-10-23T17:21:06;6.43;;;2.58;;
21239;SDS011;10778;48.962;9.018;2022-10-23T17:23:33;15.13;;;5.00;;
21239;SDS011;10778;48.962;9.018;2022-10-23T17:25:59;8.90;;;4.50;;
21239;SDS011;10778;48.962;9.018;2022-10-23T17:28:26;8.95;;;3.45;;
21239;SDS011;10778;48.962;9.018;2022-10-23T17:30:52;8.93;;;3.30;;
21239;SDS011;10778;48.962;9.018;2022-10-23T17:33:18;6.30;;;2.92;;